sensor_id;sensor_type;location;lat;lon;timestamp;pressure;altitude;pressure_sealevel;temperature;humidity
42169;BME280;27838;43.858;25.974;2022-07-23T00:00:07;100999.81;;;29.34;36.05
42169;BME280;27838;43.858;25.974;2022-07-23T00:02:34;101001.38;;;29.25;36.30
42169;BME280;27838;43.858;25.974;2022-07-23T00:05:01;101005.78;;;29.13;36.88
42169;BME280;27838;43.858;25.974;2022-07-23T00:07:27;101006.22;;;29.07;36.73
42169;BME280;27838;43.858;25.974;2022-07-23T00:09:54;101007.41;;;29.03;37.14
42169;BME280;27838;43.858;25.974;2022-07-23T00:12:21;101007.75;;;28.98;37.13
42169;BME280;27838;43.858;25.974;2022-07-23T00:14:47;101014.44;;;28.93;36.85
42169;BME280;27838;43.858;25.974;2022-07-23T00:17:14;101004.03;;;28.88;37.08
42169;BME280;27838;43.858;25.974;2022-07-23T00:19:40;101015.94;;;28.84;37.35
42169;BME280;27838;43.858;25.974;2022-07-23T00:22:07;101007.28;;;28.80;37.04
42169;BME280;27838;43.858;25.974;2022-07-23T00:24:33;101012.13;;;28.75;36.50
42169;BME280;27838;43.858;25.974;2022-07-23T00:27:00;101007.69;;;28.74;36.02
42169;BME280;27838;43.858;25.974;2022-07-23T00:29:26;101006.00;;;28.73;35.84
42169;BME280;27838;43.858;25.974;2022-07-23T00:31:53;101008.47;;;28.76;35.65
42169;BME280;27838;43.858;25.974;2022-07-23T00:34:20;101001.91;;;28.80;35.49
42169;BME280;27838;43.858;25.974;2022-07-23T00:36:46;100995.59;;;28.81;35.72
42169;BME280;27838;43.858;25.974;2022-07-23T00:39:13;100997.38;;;28.81;35.75
42169;BME280;27838;43.858;25.974;2022-07-23T00:41:39;100988.28;;;28.84;35.91
42169;BME280;27838;43.858;25.974;2022-07-23T00:46:48;100987.06;;;28.88;36.01
42169;BME280;27838;43.858;25.974;2022-07-23T00:49:19;100984.50;;;28.86;34.96
42169;BME280;27838;43.858;25.974;2022-07-23T00:51:46;100992.66;;;28.85;34.78
42169;BME280;27838;43.858;25.974;2022-07-23T00:54:13;100990.09;;;28.83;35.09
42169;BME280;27838;43.858;25.974;2022-07-23T00:56:41;100985.59;;;28.84;35.03
42169;BME280;27838;43.858;25.974;2022-07-23T00:59:09;100989.34;;;28.81;34.86
42169;BME280;27838;43.858;25.974;2022-07-23T01:01:36;100985.50;;;28.72;34.21
42169;BME280;27838;43.858;25.974;2022-07-23T01:04:02;100984.25;;;28.65;33.53
42169;BME280;27838;43.858;25.974;2022-07-23T01:06:32;100989.44;;;28.55;32.97
42169;BME280;27838;43.858;25.974;2022-07-23T01:09:00;100982.63;;;28.50;32.79
42169;BME280;27838;43.858;25.974;2022-07-23T01:11:27;100985.13;;;28.40;31.93
42169;BME280;27838;43.858;25.974;2022-07-23T01:13:54;100986.38;;;28.34;31.80
42169;BME280;27838;43.858;25.974;2022-07-23T01:16:20;100989.53;;;28.28;31.83
42169;BME280;27838;43.858;25.974;2022-07-23T01:18:47;100988.03;;;28.24;31.83
42169;BME280;27838;43.858;25.974;2022-07-23T01:21:17;100988.34;;;28.19;31.36
42169;BME280;27838;43.858;25.974;2022-07-23T01:23:44;100993.06;;;28.16;31.65
42169;BME280;27838;43.858;25.974;2022-07-23T01:26:11;100987.28;;;28.09;31.34
42169;BME280;27838;43.858;25.974;2022-07-23T01:28:39;100984.91;;;28.04;31.23
42169;BME280;27838;43.858;25.974;2022-07-23T01:31:05;100985.13;;;28.01;31.35
42169;BME280;27838;43.858;25.974;2022-07-23T01:33:32;100979.13;;;27.98;31.24
42169;BME280;27838;43.858;25.974;2022-07-23T01:35:58;100988.31;;;27.94;31.60
42169;BME280;27838;43.858;25.974;2022-07-23T01:38:25;100985.97;;;27.89;31.49
42169;BME280;27838;43.858;25.974;2022-07-23T01:40:51;100992.38;;;27.86;31.53
42169;BME280;27838;43.858;25.974;2022-07-23T01:43:18;100990.66;;;27.85;31.60
42169;BME280;27838;43.858;25.974;2022-07-23T01:45:44;100988.09;;;27.84;31.36
42169;BME280;27838;43.858;25.974;2022-07-23T01:48:11;100984.44;;;27.85;31.68
42169;BME280;27838;43.858;25.974;2022-07-23T01:50:38;100984.22;;;27.88;31.35
42169;BME280;27838;43.858;25.974;2022-07-23T01:53:04;100983.06;;;27.92;31.06
42169;BME280;27838;43.858;25.974;2022-07-23T01:55:31;100982.28;;;27.90;31.61
42169;BME280;27838;43.858;25.974;2022-07-23T01:57:57;100987.75;;;27.88;31.64
42169;BME280;27838;43.858;25.974;2022-07-23T02:00:24;100979.94;;;27.85;31.54
42169;BME280;27838;43.858;25.974;2022-07-23T02:02:50;100988.00;;;27.85;31.56
42169;BME280;27838;43.858;25.974;2022-07-23T02:05:17;100986.06;;;27.87;31.21
42169;BME280;27838;43.858;25.974;2022-07-23T02:07:43;100989.47;;;27.90;31.28
42169;BME280;27838;43.858;25.974;2022-07-23T02:10:10;100984.22;;;27.88;31.50
42169;BME280;27838;43.858;25.974;2022-07-23T02:12:37;100988.63;;;27.89;31.41
42169;BME280;27838;43.858;25.974;2022-07-23T02:15:04;100990.25;;;27.92;31.60
42169;BME280;27838;43.858;25.974;2022-07-23T02:17:30;100979.25;;;27.96;30.94
42169;BME280;27838;43.858;25.974;2022-07-23T02:19:57;100978.50;;;27.94;30.97
42169;BME280;27838;43.858;25.974;2022-07-23T02:22:23;100974.47;;;27.87;31.46
42169;BME280;27838;43.858;25.974;2022-07-23T02:24:50;100963.34;;;27.80;31.37
42169;BME280;27838;43.858;25.974;2022-07-23T02:27:17;100965.91;;;27.82;31.16
42169;BME280;27838;43.858;25.974;2022-07-23T02:29:44;100972.09;;;27.69;31.67
42169;BME280;27838;43.858;25.974;2022-07-23T02:32:10;100964.50;;;27.63;31.63
42169;BME280;27838;43.858;25.974;2022-07-23T02:34:37;100975.19;;;27.63;31.63
42169;BME280;27838;43.858;25.974;2022-07-23T02:37:03;100980.66;;;27.62;31.68
42169;BME280;27838;43.858;25.974;2022-07-23T02:39:30;100976.94;;;27.64;31.59
42169;BME280;27838;43.858;25.974;2022-07-23T02:41:56;100974.34;;;27.63;32.02
42169;BME280;27838;43.858;25.974;2022-07-23T02:44:23;100973.69;;;27.59;32.05
42169;BME280;27838;43.858;25.974;2022-07-23T02:46:49;100986.09;;;27.60;31.89
42169;BME280;27838;43.858;25.974;2022-07-23T02:49:16;100984.19;;;27.62;31.45
42169;BME280;27838;43.858;25.974;2022-07-23T02:51:42;100989.75;;;27.59;31.64
42169;BME280;27838;43.858;25.974;2022-07-23T02:54:09;100989.13;;;27.56;31.85
42169;BME280;27838;43.858;25.974;2022-07-23T02:56:36;100991.09;;;27.52;32.31
42169;BME280;27838;43.858;25.974;2022-07-23T02:59:02;100988.88;;;27.46;32.16
42169;BME280;27838;43.858;25.974;2022-07-23T03:01:29;100988.00;;;27.45;32.11
42169;BME280;27838;43.858;25.974;2022-07-23T03:03:55;100985.44;;;27.44;32.29
42169;BME280;27838;43.858;25.974;2022-07-23T03:06:22;100980.94;;;27.44;32.21
42169;BME280;27838;43.858;25.974;2022-07-23T03:08:48;100988.75;;;27.47;32.15
42169;BME280;27838;43.858;25.974;2022-07-23T03:11:15;100988.88;;;27.46;31.87
42169;BME280;27838;43.858;25.974;2022-07-23T03:13:41;100992.72;;;27.42;31.85
42169;BME280;27838;43.858;25.974;2022-07-23T03:16:08;101007.88;;;27.41;31.73
42169;BME280;27838;43.858;25.974;2022-07-23T03:18:35;101012.41;;;27.41;32.05
42169;BME280;27838;43.858;25.974;2022-07-23T03:21:02;101005.75;;;27.34;32.53
42169;BME280;27838;43.858;25.974;2022-07-23T03:23:28;101013.00;;;27.31;32.65
42169;BME280;27838;43.858;25.974;2022-07-23T03:25:55;101014.63;;;27.34;32.60
42169;BME280;27838;43.858;25.974;2022-07-23T03:28:22;101013.56;;;27.37;32.44
42169;BME280;27838;43.858;25.974;2022-07-23T03:30:48;101015.38;;;27.36;32.71
42169;BME280;27838;43.858;25.974;2022-07-23T03:33:16;101015.38;;;27.36;32.70
42169;BME280;27838;43.858;25.974;2022-07-23T03:35:43;101023.94;;;27.41;32.77
42169;BME280;27838;43.858;25.974;2022-07-23T03:38:11;101025.59;;;27.44;32.90
42169;BME280;27838;43.858;25.974;2022-07-23T03:40:38;101031.13;;;27.41;32.81
42169;BME280;27838;43.858;25.974;2022-07-23T03:43:04;101026.94;;;27.37;33.15
42169;BME280;27838;43.858;25.974;2022-07-23T03:45:31;101030.56;;;27.36;33.77
42169;BME280;27838;43.858;25.974;2022-07-23T03:47:58;101034.00;;;27.38;34.22
42169;BME280;27838;43.858;25.974;2022-07-23T03:50:25;101038.50;;;27.37;35.32
42169;BME280;27838;43.858;25.974;2022-07-23T03:52:52;101033.06;;;27.39;35.57
42169;BME280;27838;43.858;25.974;2022-07-23T03:55:19;101036.28;;;27.44;35.55
42169;BME280;27838;43.858;25.974;2022-07-23T03:57:45;101042.28;;;27.47;35.74
42169;BME280;27838;43.858;25.974;2022-07-23T04:00:12;101041.53;;;27.45;36.09
42169;BME280;27838;43.858;25.974;2022-07-23T04:02:39;101039.81;;;27.44;36.66
42169;BME280;27838;43.858;25.974;2022-07-23T04:05:07;101049.78;;;27.42;37.19
42169;BME280;27838;43.858;25.974;2022-07-23T04:07:33;101050.53;;;27.44;37.34
42169;BME280;27838;43.858;25.974;2022-07-23T04:10:00;101058.66;;;27.43;37.73
42169;BME280;27838;43.858;25.974;2022-07-23T04:12:26;101057.03;;;27.40;38.71
42169;BME280;27838;43.858;25.974;2022-07-23T04:14:53;101058.66;;;27.43;39.34
42169;BME280;27838;43.858;25.974;2022-07-23T04:17:20;101056.72;;;27.45;39.14
42169;BME280;27838;43.858;25.974;2022-07-23T04:19:46;101057.50;;;27.47;38.75
42169;BME280;27838;43.858;25.974;2022-07-23T04:22:13;101058.47;;;27.46;38.56
42169;BME280;27838;43.858;25.974;2022-07-23T04:24:39;101054.59;;;27.50;38.33
42169;BME280;27838;43.858;25.974;2022-07-23T04:27:06;101053.56;;;27.53;37.92
42169;BME280;27838;43.858;25.974;2022-07-23T04:29:32;101054.97;;;27.58;37.83
42169;BME280;27838;43.858;25.974;2022-07-23T04:31:59;101059.03;;;27.64;37.71
42169;BME280;27838;43.858;25.974;2022-07-23T04:34:26;101062.38;;;27.67;37.66
42169;BME280;27838;43.858;25.974;2022-07-23T04:36:53;101053.41;;;27.68;37.21
42169;BME280;27838;43.858;25.974;2022-07-23T04:39:20;101057.78;;;27.69;37.57
42169;BME280;27838;43.858;25.974;2022-07-23T04:41:46;101053.19;;;27.72;37.50
42169;BME280;27838;43.858;25.974;2022-07-23T04:44:13;101071.63;;;27.76;37.57
42169;BME280;27838;43.858;25.974;2022-07-23T04:46:40;101067.97;;;27.77;37.25
42169;BME280;27838;43.858;25.974;2022-07-23T04:49:06;101078.69;;;27.77;37.42
42169;BME280;27838;43.858;25.974;2022-07-23T04:51:33;101079.16;;;27.84;37.05
42169;BME280;27838;43.858;25.974;2022-07-23T04:54:00;101058.44;;;27.73;37.88
42169;BME280;27838;43.858;25.974;2022-07-23T04:56:26;101082.13;;;27.79;37.84
42169;BME280;27838;43.858;25.974;2022-07-23T04:58:53;101087.94;;;27.86;38.15
42169;BME280;27838;43.858;25.974;2022-07-23T05:01:19;101089.63;;;27.87;37.91
42169;BME280;27838;43.858;25.974;2022-07-23T05:03:46;101082.56;;;27.86;38.13
42169;BME280;27838;43.858;25.974;2022-07-23T05:06:13;101094.78;;;27.90;37.98
42169;BME280;27838;43.858;25.974;2022-07-23T05:08:40;101092.91;;;27.92;38.07
42169;BME280;27838;43.858;25.974;2022-07-23T05:11:07;101099.03;;;27.94;38.06
42169;BME280;27838;43.858;25.974;2022-07-23T05:13:33;101097.97;;;27.97;37.69
42169;BME280;27838;43.858;25.974;2022-07-23T05:16:00;101089.06;;;27.96;37.35
42169;BME280;27838;43.858;25.974;2022-07-23T05:18:26;101106.44;;;28.03;37.71
42169;BME280;27838;43.858;25.974;2022-07-23T05:20:53;101104.50;;;28.05;37.61
42169;BME280;27838;43.858;25.974;2022-07-23T05:23:19;101112.16;;;28.12;37.66
42169;BME280;27838;43.858;25.974;2022-07-23T05:25:46;101108.28;;;28.16;37.57
42169;BME280;27838;43.858;25.974;2022-07-23T05:28:12;101114.19;;;28.21;37.43
42169;BME280;27838;43.858;25.974;2022-07-23T05:30:39;101115.59;;;28.27;37.25
42169;BME280;27838;43.858;25.974;2022-07-23T05:33:07;101110.97;;;28.29;37.02
42169;BME280;27838;43.858;25.974;2022-07-23T05:35:33;101115.94;;;28.35;36.82
42169;BME280;27838;43.858;25.974;2022-07-23T05:38:00;101112.06;;;28.39;37.03
42169;BME280;27838;43.858;25.974;2022-07-23T05:40:27;101114.44;;;28.43;36.72
42169;BME280;27838;43.858;25.974;2022-07-23T05:42:53;101117.75;;;28.47;36.98
42169;BME280;27838;43.858;25.974;2022-07-23T05:45:20;101121.94;;;28.51;36.50
42169;BME280;27838;43.858;25.974;2022-07-23T05:47:48;101121.66;;;28.56;36.63
42169;BME280;27838;43.858;25.974;2022-07-23T05:50:15;101123.03;;;28.61;36.38
42169;BME280;27838;43.858;25.974;2022-07-23T05:52:42;101121.75;;;28.67;36.32
42169;BME280;27838;43.858;25.974;2022-07-23T05:55:10;101124.97;;;28.72;36.70
42169;BME280;27838;43.858;25.974;2022-07-23T05:57:37;101120.88;;;28.79;36.80
42169;BME280;27838;43.858;25.974;2022-07-23T06:00:05;101114.25;;;28.85;36.64
42169;BME280;27838;43.858;25.974;2022-07-23T06:02:32;101112.22;;;28.89;36.98
42169;BME280;27838;43.858;25.974;2022-07-23T06:04:59;101110.91;;;28.94;36.53
42169;BME280;27838;43.858;25.974;2022-07-23T06:07:25;101119.47;;;28.99;36.39
42169;BME280;27838;43.858;25.974;2022-07-23T06:09:52;101109.16;;;29.06;36.41
42169;BME280;27838;43.858;25.974;2022-07-23T06:12:19;101110.97;;;29.06;36.45
42169;BME280;27838;43.858;25.974;2022-07-23T06:14:45;101108.41;;;29.04;36.30
42169;BME280;27838;43.858;25.974;2022-07-23T06:17:13;101119.66;;;29.09;36.13
42169;BME280;27838;43.858;25.974;2022-07-23T06:19:40;101115.69;;;29.15;36.31
42169;BME280;27838;43.858;25.974;2022-07-23T06:22:06;101122.38;;;29.22;36.10
42169;BME280;27838;43.858;25.974;2022-07-23T06:24:33;101121.06;;;29.28;36.04
42169;BME280;27838;43.858;25.974;2022-07-23T06:26:59;101120.84;;;29.31;35.86
42169;BME280;27838;43.858;25.974;2022-07-23T06:29:26;101127.69;;;29.35;35.81
42169;BME280;27838;43.858;25.974;2022-07-23T06:31:53;101124.56;;;29.41;35.55
42169;BME280;27838;43.858;25.974;2022-07-23T06:34:19;101125.09;;;29.46;35.52
42169;BME280;27838;43.858;25.974;2022-07-23T06:36:46;101138.28;;;29.49;35.50
42169;BME280;27838;43.858;25.974;2022-07-23T06:39:13;101128.53;;;29.48;35.62
42169;BME280;27838;43.858;25.974;2022-07-23T06:41:39;101123.88;;;29.50;35.88
42169;BME280;27838;43.858;25.974;2022-07-23T06:44:06;101119.25;;;29.52;35.89
42169;BME280;27838;43.858;25.974;2022-07-23T06:46:32;101117.19;;;29.56;35.79
42169;BME280;27838;43.858;25.974;2022-07-23T06:48:59;101110.75;;;29.59;35.26
42169;BME280;27838;43.858;25.974;2022-07-23T06:51:26;101117.59;;;29.63;35.28
42169;BME280;27838;43.858;25.974;2022-07-23T06:53:52;101119.09;;;29.67;35.16
42169;BME280;27838;43.858;25.974;2022-07-23T06:56:19;101111.03;;;29.67;34.92
42169;BME280;27838;43.858;25.974;2022-07-23T06:58:45;101125.63;;;29.75;35.16
42169;BME280;27838;43.858;25.974;2022-07-23T07:01:12;101123.47;;;29.81;35.04
42169;BME280;27838;43.858;25.974;2022-07-23T07:03:38;101126.53;;;29.87;34.64
42169;BME280;27838;43.858;25.974;2022-07-23T07:06:05;101128.00;;;29.91;34.27
42169;BME280;27838;43.858;25.974;2022-07-23T07:08:32;101125.09;;;29.94;34.29
42169;BME280;27838;43.858;25.974;2022-07-23T07:10:58;101131.00;;;30.00;34.25
42169;BME280;27838;43.858;25.974;2022-07-23T07:13:25;101133.34;;;30.04;33.93
42169;BME280;27838;43.858;25.974;2022-07-23T07:15:51;101126.63;;;30.10;33.95
42169;BME280;27838;43.858;25.974;2022-07-23T07:18:18;101131.03;;;30.11;33.54
42169;BME280;27838;43.858;25.974;2022-07-23T07:20:44;101126.41;;;30.13;33.58
42169;BME280;27838;43.858;25.974;2022-07-23T07:23:12;101123.22;;;30.19;33.54
42169;BME280;27838;43.858;25.974;2022-07-23T07:25:38;101129.84;;;30.26;33.15
42169;BME280;27838;43.858;25.974;2022-07-23T07:28:05;101133.03;;;30.31;33.08
42169;BME280;27838;43.858;25.974;2022-07-23T07:30:32;101116.72;;;30.35;32.95
42169;BME280;27838;43.858;25.974;2022-07-23T07:32:58;101117.94;;;30.42;32.93
42169;BME280;27838;43.858;25.974;2022-07-23T07:35:25;101108.53;;;30.47;32.83
42169;BME280;27838;43.858;25.974;2022-07-23T07:37:52;101111.59;;;30.54;32.67
42169;BME280;27838;43.858;25.974;2022-07-23T07:40:19;101119.94;;;30.62;32.70
42169;BME280;27838;43.858;25.974;2022-07-23T07:42:49;101107.09;;;30.66;32.39
42169;BME280;27838;43.858;25.974;2022-07-23T07:45:16;101107.72;;;30.69;32.61
42169;BME280;27838;43.858;25.974;2022-07-23T07:47:43;101107.97;;;30.78;32.29
42169;BME280;27838;43.858;25.974;2022-07-23T07:50:09;101100.38;;;30.83;31.97
42169;BME280;27838;43.858;25.974;2022-07-23T07:52:36;101101.84;;;30.87;31.77
42169;BME280;27838;43.858;25.974;2022-07-23T07:55:04;101102.34;;;30.92;31.16
42169;BME280;27838;43.858;25.974;2022-07-23T07:57:30;101091.25;;;30.97;30.95
42169;BME280;27838;43.858;25.974;2022-07-23T07:59:57;101091.34;;;31.06;30.56
42169;BME280;27838;43.858;25.974;2022-07-23T08:02:24;101095.22;;;31.14;30.25
42169;BME280;27838;43.858;25.974;2022-07-23T08:04:51;101093.50;;;31.24;29.93
42169;BME280;27838;43.858;25.974;2022-07-23T08:07:18;101089.31;;;31.31;29.67
42169;BME280;27838;43.858;25.974;2022-07-23T08:09:45;101087.88;;;31.38;29.54
42169;BME280;27838;43.858;25.974;2022-07-23T08:12:11;101091.75;;;31.46;29.25
42169;BME280;27838;43.858;25.974;2022-07-23T08:14:38;101092.38;;;31.49;28.92
42169;BME280;27838;43.858;25.974;2022-07-23T08:17:04;101089.28;;;31.54;28.92
42169;BME280;27838;43.858;25.974;2022-07-23T08:19:31;101088.06;;;31.58;28.85
42169;BME280;27838;43.858;25.974;2022-07-23T08:21:58;101091.50;;;31.60;29.08
42169;BME280;27838;43.858;25.974;2022-07-23T08:24:24;101086.69;;;31.64;28.86
42169;BME280;27838;43.858;25.974;2022-07-23T08:26:51;101080.94;;;31.68;29.23
42169;BME280;27838;43.858;25.974;2022-07-23T08:29:17;101072.19;;;31.76;29.58
42169;BME280;27838;43.858;25.974;2022-07-23T08:31:44;101067.16;;;31.83;29.89
42169;BME280;27838;43.858;25.974;2022-07-23T08:34:10;101072.00;;;31.89;29.25
42169;BME280;27838;43.858;25.974;2022-07-23T08:36:37;101066.09;;;31.95;29.08
42169;BME280;27838;43.858;25.974;2022-07-23T08:39:03;101060.16;;;32.01;29.50
42169;BME280;27838;43.858;25.974;2022-07-23T08:41:30;101065.09;;;32.07;29.30
42169;BME280;27838;43.858;25.974;2022-07-23T08:43:56;101062.00;;;32.12;29.79
42169;BME280;27838;43.858;25.974;2022-07-23T08:46:26;101061.72;;;32.15;29.21
42169;BME280;27838;43.858;25.974;2022-07-23T08:48:53;101065.00;;;32.18;29.50
42169;BME280;27838;43.858;25.974;2022-07-23T08:51:20;101059.94;;;32.25;29.50
42169;BME280;27838;43.858;25.974;2022-07-23T08:53:47;101059.88;;;32.36;28.83
42169;BME280;27838;43.858;25.974;2022-07-23T08:56:14;101053.41;;;32.49;26.43
42169;BME280;27838;43.858;25.974;2022-07-23T08:58:40;101058.81;;;32.59;25.30
42169;BME280;27838;43.858;25.974;2022-07-23T09:01:07;101047.16;;;32.79;25.78
42169;BME280;27838;43.858;25.974;2022-07-23T09:03:36;101047.47;;;32.96;25.26
42169;BME280;27838;43.858;25.974;2022-07-23T09:06:03;101050.22;;;33.05;26.63
42169;BME280;27838;43.858;25.974;2022-07-23T09:08:38;101045.84;;;33.14;27.68
42169;BME280;27838;43.858;25.974;2022-07-23T09:11:07;101052.41;;;33.21;27.57
42169;BME280;27838;43.858;25.974;2022-07-23T09:13:39;101049.16;;;33.27;26.86
42169;BME280;27838;43.858;25.974;2022-07-23T09:16:16;101043.31;;;33.32;27.01
42169;BME280;27838;43.858;25.974;2022-07-23T09:18:49;101041.91;;;33.38;26.84
42169;BME280;27838;43.858;25.974;2022-07-23T09:21:25;101040.91;;;33.39;26.63
42169;BME280;27838;43.858;25.974;2022-07-23T09:31:27;101036.78;;;33.54;26.33
42169;BME280;27838;43.858;25.974;2022-07-23T09:34:12;101034.09;;;33.64;26.13
42169;BME280;27838;43.858;25.974;2022-07-23T09:36:40;101028.69;;;33.74;25.38
42169;BME280;27838;43.858;25.974;2022-07-23T09:39:08;101036.66;;;33.85;25.71
42169;BME280;27838;43.858;25.974;2022-07-23T09:41:37;101030.66;;;33.91;25.10
42169;BME280;27838;43.858;25.974;2022-07-23T09:44:15;101030.81;;;33.99;25.09
42169;BME280;27838;43.858;25.974;2022-07-23T09:46:44;101032.63;;;34.09;25.13
42169;BME280;27838;43.858;25.974;2022-07-23T09:49:19;101028.47;;;34.14;24.57
42169;BME280;27838;43.858;25.974;2022-07-23T09:51:47;101022.66;;;34.19;24.86
42169;BME280;27838;43.858;25.974;2022-07-23T09:56:48;101017.78;;;34.32;24.04
42169;BME280;27838;43.858;25.974;2022-07-23T09:59:16;101023.28;;;34.40;24.29
42169;BME280;27838;43.858;25.974;2022-07-23T10:01:44;101019.16;;;34.46;23.91
42169;BME280;27838;43.858;25.974;2022-07-23T10:04:11;101016.00;;;34.51;23.68
42169;BME280;27838;43.858;25.974;2022-07-23T10:06:39;101006.88;;;34.52;24.58
42169;BME280;27838;43.858;25.974;2022-07-23T10:09:08;101008.00;;;34.59;23.94
42169;BME280;27838;43.858;25.974;2022-07-23T10:11:37;101002.28;;;34.62;23.75
42169;BME280;27838;43.858;25.974;2022-07-23T10:14:04;100999.97;;;34.67;23.73
42169;BME280;27838;43.858;25.974;2022-07-23T10:16:31;100999.38;;;34.73;23.49
42169;BME280;27838;43.858;25.974;2022-07-23T10:18:58;100994.22;;;34.80;23.79
42169;BME280;27838;43.858;25.974;2022-07-23T10:21:34;100997.19;;;34.87;23.01
42169;BME280;27838;43.858;25.974;2022-07-23T10:29:55;100986.38;;;35.05;23.38
42169;BME280;27838;43.858;25.974;2022-07-23T10:35:43;100980.28;;;35.21;22.86
42169;BME280;27838;43.858;25.974;2022-07-23T10:38:22;100979.97;;;35.24;22.47
42169;BME280;27838;43.858;25.974;2022-07-23T10:43:21;100969.91;;;35.34;22.61
42169;BME280;27838;43.858;25.974;2022-07-23T10:45:48;100965.25;;;35.44;21.92
42169;BME280;27838;43.858;25.974;2022-07-23T10:48:23;100961.22;;;35.48;22.12
42169;BME280;27838;43.858;25.974;2022-07-23T10:51:12;100959.56;;;35.55;21.51
42169;BME280;27838;43.858;25.974;2022-07-23T10:59:16;100954.69;;;35.77;21.00
42169;BME280;27838;43.858;25.974;2022-07-23T11:01:43;100947.63;;;35.84;20.71
42169;BME280;27838;43.858;25.974;2022-07-23T11:04:10;100949.84;;;35.89;20.93
42169;BME280;27838;43.858;25.974;2022-07-23T11:09:29;100944.00;;;36.02;20.96
42169;BME280;27838;43.858;25.974;2022-07-23T11:17:33;100940.41;;;36.27;20.75
42169;BME280;27838;43.858;25.974;2022-07-23T11:22:47;100933.00;;;36.46;20.22
42169;BME280;27838;43.858;25.974;2022-07-23T11:27:48;100936.75;;;36.53;19.81
42169;BME280;27838;43.858;25.974;2022-07-23T11:35:46;100928.50;;;36.63;19.88
42169;BME280;27838;43.858;25.974;2022-07-23T11:38:15;100919.69;;;36.69;19.98
42169;BME280;27838;43.858;25.974;2022-07-23T11:40:47;100917.34;;;36.74;19.73
42169;BME280;27838;43.858;25.974;2022-07-23T11:43:14;100918.69;;;36.78;20.05
42169;BME280;27838;43.858;25.974;2022-07-23T11:45:43;100914.66;;;36.82;19.35
42169;BME280;27838;43.858;25.974;2022-07-23T11:50:43;100911.59;;;36.85;19.51
42169;BME280;27838;43.858;25.974;2022-07-23T11:53:09;100909.56;;;36.88;19.80
42169;BME280;27838;43.858;25.974;2022-07-23T11:55:36;100902.94;;;36.90;19.70
42169;BME280;27838;43.858;25.974;2022-07-23T11:58:03;100909.75;;;36.94;19.52
42169;BME280;27838;43.858;25.974;2022-07-23T12:00:30;100911.09;;;36.98;19.28
42169;BME280;27838;43.858;25.974;2022-07-23T12:03:02;100910.94;;;37.00;19.53
42169;BME280;27838;43.858;25.974;2022-07-23T12:05:33;100915.47;;;36.99;19.22
42169;BME280;27838;43.858;25.974;2022-07-23T12:08:01;100913.66;;;37.00;19.29
42169;BME280;27838;43.858;25.974;2022-07-23T12:10:35;100912.78;;;36.99;19.51
42169;BME280;27838;43.858;25.974;2022-07-23T12:13:08;100898.50;;;36.97;19.43
42169;BME280;27838;43.858;25.974;2022-07-23T12:18:06;100887.00;;;37.03;19.24
42169;BME280;27838;43.858;25.974;2022-07-23T12:20:42;100890.38;;;37.06;19.40
42169;BME280;27838;43.858;25.974;2022-07-23T12:23:10;100888.50;;;37.06;19.85
42169;BME280;27838;43.858;25.974;2022-07-23T12:25:39;100891.06;;;37.08;19.45
42169;BME280;27838;43.858;25.974;2022-07-23T12:28:19;100884.63;;;37.09;19.53
42169;BME280;27838;43.858;25.974;2022-07-23T12:30:48;100887.50;;;37.07;19.92
42169;BME280;27838;43.858;25.974;2022-07-23T12:33:36;100888.66;;;37.04;19.48
42169;BME280;27838;43.858;25.974;2022-07-23T12:36:06;100887.66;;;36.97;19.74
42169;BME280;27838;43.858;25.974;2022-07-23T12:38:47;100884.25;;;36.95;20.06
42169;BME280;27838;43.858;25.974;2022-07-23T12:41:15;100879.16;;;36.92;19.77
42169;BME280;27838;43.858;25.974;2022-07-23T12:43:44;100873.06;;;36.90;19.75
42169;BME280;27838;43.858;25.974;2022-07-23T12:46:13;100877.81;;;36.88;19.93
42169;BME280;27838;43.858;25.974;2022-07-23T12:48:51;100870.66;;;36.87;20.24
42169;BME280;27838;43.858;25.974;2022-07-23T12:51:22;100875.25;;;36.87;19.92
42169;BME280;27838;43.858;25.974;2022-07-23T12:53:50;100870.66;;;36.87;20.05
42169;BME280;27838;43.858;25.974;2022-07-23T12:56:29;100869.47;;;36.81;19.89
42169;BME280;27838;43.858;25.974;2022-07-23T12:59:01;100865.09;;;36.80;20.20
42169;BME280;27838;43.858;25.974;2022-07-23T13:01:33;100870.00;;;36.77;20.51
42169;BME280;27838;43.858;25.974;2022-07-23T13:04:12;100861.50;;;36.72;20.03
42169;BME280;27838;43.858;25.974;2022-07-23T13:06:59;100855.38;;;36.70;20.20
42169;BME280;27838;43.858;25.974;2022-07-23T13:09:31;100852.31;;;36.64;20.06
42169;BME280;27838;43.858;25.974;2022-07-23T13:11:59;100855.50;;;36.60;20.74
42169;BME280;27838;43.858;25.974;2022-07-23T13:14:26;100848.91;;;36.54;20.25
42169;BME280;27838;43.858;25.974;2022-07-23T13:16:54;100846.69;;;36.58;19.99
42169;BME280;27838;43.858;25.974;2022-07-23T13:19:21;100843.47;;;36.54;20.36
42169;BME280;27838;43.858;25.974;2022-07-23T13:21:48;100843.81;;;36.59;20.63
42169;BME280;27838;43.858;25.974;2022-07-23T13:24:15;100842.63;;;36.62;20.52
42169;BME280;27838;43.858;25.974;2022-07-23T13:26:41;100844.50;;;36.61;20.35
42169;BME280;27838;43.858;25.974;2022-07-23T13:29:08;100841.94;;;36.60;20.12
42169;BME280;27838;43.858;25.974;2022-07-23T13:31:38;100837.53;;;36.59;20.30
42169;BME280;27838;43.858;25.974;2022-07-23T13:34:06;100830.56;;;36.56;19.90
42169;BME280;27838;43.858;25.974;2022-07-23T13:36:32;100840.41;;;36.57;20.38